Time,TemperatureF,DewpointF,PressureIn,WindDirection,WindDirectionDegrees,WindSpeedMPH,WindSpeedGustMPH,Humidity,HourlyPrecipIn,Conditions,Clouds,dailyrainin,SoftwareType,DateUTC
2017-03-27 06:28:00,47.3,47.0,29.03,SSW,203,1.0,-999.0,98,0.00,,,0.00,,2017-03-27 10:28:00,
2017-03-27 06:34:00,47.1,46.0,29.15,SSW,203,1.0,-999.0,98,0.00,,,0.00,,2017-03-27 10:34:00,
2017-03-27 06:40:00,47.1,46.0,29.15,SSW,203,0.0,-999.0,98,0.00,,,0.00,,2017-03-27 10:40:00,
2017-03-27 07:22:00,47.1,46.0,29.14,SSW,203,0.0,-999.0,98,0.00,,,0.00,,2017-03-27 11:22:00,
2017-03-27 08:08:00,47.1,46.0,29.13,SSW,203,2.0,-999.0,98,0.00,,,0.00,,2017-03-27 12:08:00,
2017-03-27 08:15:00,47.1,46.0,29.16,SSW,203,1.0,-999.0,98,0.00,,,0.00,,2017-03-27 12:15:00,
2017-03-27 08:20:00,49.4,49.0,29.17,SSW,203,2.0,-999.0,98,0.00,,,0.00,,2017-03-27 12:20:00,
2017-03-27 08:26:00,50.1,49.0,29.17,SSW,203,1.0,-999.0,98,0.00,,,0.00,,2017-03-27 12:26:00,
2017-03-27 08:32:00,51.4,51.0,29.16,SW,225,2.0,-999.0,98,0.00,,,0.00,,2017-03-27 12:32:00,
2017-03-27 08:38:00,51.4,51.0,29.16,SSW,203,3.0,-999.0,98,0.00,,,0.00,,2017-03-27 12:38:00,
2017-03-27 08:44:00,52.3,52.0,29.17,SW,225,4.0,-999.0,98,0.00,,,0.00,,2017-03-27 12:44:00,
2017-03-27 08:50:00,52.5,52.0,29.17,WSW,248,3.0,-999.0,98,0.00,,,0.00,,2017-03-27 12:50:00,
2017-03-27 08:55:00,53.4,53.0,29.17,SW,225,3.0,-999.0,98,0.00,,,0.00,,2017-03-27 12:55:00,
2017-03-27 09:00:00,54.0,53.0,29.17,SSW,203,3.0,-999.0,98,0.00,,,0.00,,2017-03-27 13:00:00,
2017-03-27 09:05:00,54.4,54.0,29.17,SW,225,2.0,-999.0,98,0.00,,,0.00,,2017-03-27 13:05:00,
2017-03-27 09:10:00,55.1,54.0,29.17,SW,225,2.0,-999.0,98,0.00,,,0.00,,2017-03-27 13:10:00,
2017-03-27 09:15:00,55.3,55.0,29.17,SW,225,0.0,-999.0,98,0.00,,,0.00,,2017-03-27 13:15:00,
2017-03-27 09:21:00,55.7,55.0,29.17,SW,225,4.0,-999.0,98,0.00,,,0.00,,2017-03-27 13:21:00,
2017-03-27 09:26:00,56.7,55.0,29.18,SSW,203,4.0,-999.0,96,0.00,,,0.00,,2017-03-27 13:26:00,
2017-03-27 09:31:00,57.2,56.0,29.18,SW,225,2.0,-999.0,96,0.00,,,0.00,,2017-03-27 13:31:00,
2017-03-27 09:43:00,58.2,56.0,29.17,SSW,203,3.0,-999.0,93,0.00,,,0.00,,2017-03-27 13:43:00,
2017-03-27 09:48:00,59.0,56.0,29.17,SSE,158,2.0,-999.0,91,0.00,,,0.00,,2017-03-27 13:48:00,
2017-03-27 09:55:00,58.8,56.0,29.17,East,90,2.0,-999.0,91,0.00,,,0.00,,2017-03-27 13:55:00,
2017-03-27 10:00:00,59.2,57.0,29.17,NW,315,3.0,-999.0,93,0.00,,,0.00,,2017-03-27 14:00:00,
2017-03-27 10:28:00,62.2,56.0,29.17,NW,315,3.0,-999.0,81,0.00,,,0.00,,2017-03-27 14:28:00,
2017-03-27 10:35:00,58.5,55.0,29.17,WNW,293,4.0,-999.0,88,0.00,,,0.00,,2017-03-27 14:35:00,
2017-03-27 10:40:00,58.4,55.0,29.17,NW,315,3.0,-999.0,90,0.00,,,0.00,,2017-03-27 14:40:00,
2017-03-27 11:35:00,60.0,56.0,29.18,South,180,2.0,-999.0,88,0.00,,,0.00,,2017-03-27 15:35:00,
2017-03-27 11:42:00,60.2,55.0,29.18,SW,225,2.0,-999.0,83,0.00,,,0.00,,2017-03-27 15:42:00,
2017-03-27 11:48:00,60.5,55.0,29.18,SW,225,5.0,-999.0,83,0.00,,,0.00,,2017-03-27 15:48:00,
2017-03-27 11:53:00,60.5,55.0,29.17,South,180,1.0,-999.0,83,0.00,,,0.00,,2017-03-27 15:53:00,
2017-03-27 11:59:00,60.2,55.0,29.17,SSW,203,4.0,-999.0,83,0.00,,,0.00,,2017-03-27 15:59:00,
2017-03-27 12:04:00,62.5,58.0,29.16,South,180,6.0,-999.0,85,0.00,,,0.00,,2017-03-27 16:04:00,
2017-03-27 12:09:00,63.0,57.0,29.16,WSW,248,4.0,-999.0,83,0.00,,,0.00,,2017-03-27 16:09:00,
2017-03-27 12:14:00,62.7,57.0,29.17,SSW,203,2.0,-999.0,81,0.00,,,0.00,,2017-03-27 16:14:00,
2017-03-27 12:19:00,63.9,58.0,29.15,West,270,3.0,-999.0,83,0.00,,,0.00,,2017-03-27 16:19:00,
2017-03-27 12:24:00,63.0,57.0,29.15,South,180,4.0,-999.0,81,0.00,,,0.00,,2017-03-27 16:24:00,
2017-03-27 12:29:00,63.4,57.0,29.15,WSW,248,0.0,-999.0,80,0.00,,,0.00,,2017-03-27 16:29:00,